createdAt,value
2023-04-17T00:00:31.112Z,99.45
2023-04-17T00:03:22.574Z,99.08
2023-04-17T00:05:56.757Z,99.29
2023-04-17T00:08:28.558Z,99.57
2023-04-17T00:11:07.998Z,100.00
2023-04-17T00:13:40.709Z,100.00
2023-04-17T00:16:13.816Z,100.00
2023-04-17T00:18:45.710Z,100.00
2023-04-17T00:21:17.876Z,100.00
2023-04-17T00:23:49.620Z,99.99
2023-04-17T00:26:21.478Z,100.00
2023-04-17T00:28:53.922Z,100.00
2023-04-17T00:31:26.173Z,100.00
2023-04-17T00:33:59.049Z,100.00
2023-04-17T00:36:32.632Z,100.00
2023-04-17T00:39:04.363Z,100.00
2023-04-17T00:41:36.160Z,100.00
2023-04-17T00:44:08.811Z,100.00
2023-04-17T00:46:41.575Z,100.00
2023-04-17T00:49:14.075Z,100.00
2023-04-17T00:51:47.062Z,100.00
2023-04-17T00:54:20.553Z,100.00
2023-04-17T00:56:56.518Z,100.00
2023-04-17T00:59:29.411Z,100.00
2023-04-17T01:02:02.327Z,100.00
2023-04-17T01:04:34.756Z,100.00
2023-04-17T01:07:07.357Z,100.00
2023-04-17T01:09:39.613Z,100.00
2023-04-17T01:12:22.198Z,100.00
2023-04-17T01:14:55.194Z,99.98
2023-04-17T01:17:27.673Z,100.00
2023-04-17T01:20:00.297Z,100.00
2023-04-17T01:22:30.695Z,100.00
2023-04-17T01:25:02.805Z,100.00
2023-04-17T01:27:39.807Z,100.00
2023-04-17T01:30:14.844Z,100.00
2023-04-17T01:32:54.411Z,100.00
2023-04-17T01:35:26.748Z,100.00
2023-04-17T01:37:57.961Z,100.00
2023-04-17T01:40:30.546Z,100.00
2023-04-17T01:43:03.102Z,100.00
2023-04-17T01:45:34.933Z,100.00
2023-04-17T01:48:07.643Z,100.00
2023-04-17T01:50:39.417Z,100.00
2023-04-17T01:53:11.111Z,100.00
2023-04-17T01:55:42.783Z,100.00
2023-04-17T01:58:14.532Z,100.00
2023-04-17T02:00:48.220Z,100.00
2023-04-17T02:03:20.393Z,100.00
2023-04-17T02:05:53.252Z,100.00
2023-04-17T02:08:25.082Z,100.00
2023-04-17T02:10:59.370Z,100.00
2023-04-17T02:13:31.303Z,100.00
2023-04-17T02:16:03.119Z,100.00
2023-04-17T02:18:34.872Z,100.00
2023-04-17T02:21:06.800Z,100.00
2023-04-17T02:23:40.531Z,100.00
2023-04-17T02:26:12.496Z,100.00
2023-04-17T02:28:46.134Z,100.00
2023-04-17T02:31:18.147Z,100.00
2023-04-17T02:33:50.710Z,100.00
2023-04-17T02:36:22.839Z,100.00
2023-04-17T02:38:54.872Z,100.00
2023-04-17T02:41:26.600Z,100.00
2023-04-17T02:43:58.560Z,100.00
2023-04-17T02:46:30.661Z,100.00
2023-04-17T02:49:02.538Z,100.00
2023-04-17T02:51:36.129Z,100.00
2023-04-17T02:54:08.466Z,100.00
2023-04-17T02:56:40.333Z,100.00
2023-04-17T02:59:13.865Z,100.00
2023-04-17T03:01:46.628Z,100.00
2023-04-17T03:04:18.743Z,100.00
2023-04-17T03:06:51.501Z,100.00
2023-04-17T03:09:23.773Z,100.00
2023-04-17T03:11:56.692Z,100.00
2023-04-17T03:14:28.865Z,100.00
2023-04-17T03:17:01.011Z,100.00
2023-04-17T03:19:33.046Z,100.00
2023-04-17T03:22:05.779Z,100.00
2023-04-17T03:24:36.276Z,100.00
2023-04-17T03:27:08.272Z,100.00
2023-04-17T03:29:43.210Z,100.00
2023-04-17T03:32:15.157Z,100.00
2023-04-17T03:34:47.387Z,100.00
2023-04-17T03:37:19.413Z,100.00
2023-04-17T03:39:51.382Z,100.00
2023-04-17T03:42:23.208Z,100.00
2023-04-17T03:44:56.125Z,100.00
2023-04-17T03:47:28.060Z,100.00
2023-04-17T03:50:01.444Z,100.00
2023-04-17T03:52:36.500Z,100.00
2023-04-17T03:55:10.555Z,100.00
2023-04-17T03:57:42.752Z,100.00
2023-04-17T04:00:16.239Z,100.00
2023-04-17T04:02:51.710Z,100.00
2023-04-17T04:05:30.217Z,100.00
2023-04-17T04:08:03.075Z,100.00
2023-04-17T04:10:46.892Z,100.00
2023-04-17T04:13:23.041Z,100.00
2023-04-17T04:15:58.991Z,100.00
2023-04-17T04:18:32.926Z,100.00
2023-04-17T04:21:05.824Z,100.00
2023-04-17T04:23:41.233Z,100.00
2023-04-17T04:26:13.578Z,100.00
2023-04-17T04:28:49.858Z,100.00
2023-04-17T04:31:26.488Z,100.00
2023-04-17T04:33:59.023Z,100.00
2023-04-17T04:36:36.166Z,100.00
2023-04-17T04:39:20.650Z,100.00
2023-04-17T04:41:54.121Z,100.00
2023-04-17T04:44:27.450Z,100.00
2023-04-17T04:47:01.684Z,100.00
2023-04-17T04:49:33.899Z,100.00
2023-04-17T04:52:06.671Z,100.00
2023-04-17T04:54:38.770Z,100.00
2023-04-17T04:57:10.688Z,100.00
2023-04-17T04:59:42.420Z,100.00
2023-04-17T05:02:34.669Z,100.00
2023-04-17T05:05:09.975Z,100.00
2023-04-17T05:07:42.264Z,100.00
2023-04-17T05:10:18.047Z,100.00
2023-04-17T05:12:55.396Z,100.00
2023-04-17T05:15:27.896Z,100.00
2023-04-17T05:18:00.432Z,100.00
2023-04-17T05:20:33.229Z,100.00
2023-04-17T05:23:05.900Z,100.00
2023-04-17T05:25:36.332Z,100.00
2023-04-17T05:28:10.647Z,100.00
2023-04-17T05:30:43.433Z,100.00
2023-04-17T05:33:27.561Z,100.00
2023-04-17T05:36:03.107Z,100.00
2023-04-17T05:38:37.228Z,100.00
2023-04-17T05:41:11.723Z,100.00
2023-04-17T05:43:43.879Z,100.00
2023-04-17T05:46:17.581Z,100.00
2023-04-17T05:48:50.466Z,100.00
2023-04-17T05:51:22.781Z,100.00
2023-04-17T05:53:54.780Z,100.00
2023-04-17T05:56:26.522Z,100.00
2023-04-17T05:58:58.578Z,100.00
2023-04-17T06:01:32.589Z,100.00
2023-04-17T06:04:04.687Z,100.00
2023-04-17T06:06:37.442Z,100.00
2023-04-17T06:09:11.244Z,100.00
2023-04-17T06:11:43.650Z,100.00
2023-04-17T06:14:15.882Z,100.00
2023-04-17T06:16:48.305Z,100.00
2023-04-17T06:19:22.493Z,100.00
2023-04-17T06:21:54.546Z,100.00
2023-04-17T06:24:26.671Z,100.00
2023-04-17T06:26:59.981Z,100.00
2023-04-17T06:29:32.088Z,99.96
2023-04-17T06:32:04.039Z,99.86
2023-04-17T06:34:38.176Z,99.89
2023-04-17T06:37:15.634Z,99.94
2023-04-17T06:39:47.829Z,99.98
2023-04-17T06:42:20.528Z,99.93
2023-04-17T06:44:57.214Z,99.49
2023-04-17T06:47:29.266Z,99.18
2023-04-17T06:50:01.524Z,98.98
2023-04-17T06:52:33.475Z,98.61
2023-04-17T06:55:05.844Z,98.54
2023-04-17T06:57:39.237Z,98.66
2023-04-17T07:00:14.041Z,98.35
2023-04-17T07:02:46.436Z,97.87
2023-04-17T07:05:19.033Z,97.90
2023-04-17T07:07:50.890Z,98.03
2023-04-17T07:10:22.803Z,97.91
2023-04-17T07:12:55.169Z,98.00
2023-04-17T07:15:30.445Z,97.65
2023-04-17T07:18:02.468Z,97.33
2023-04-17T07:20:34.504Z,97.53
2023-04-17T07:23:06.383Z,97.09
2023-04-17T07:25:38.469Z,96.77
2023-04-17T07:28:10.859Z,96.25
2023-04-17T07:30:43.287Z,95.79
2023-04-17T07:33:15.228Z,95.57
2023-04-17T07:35:47.222Z,95.31
2023-04-17T07:38:19.122Z,94.68
2023-04-17T07:40:50.921Z,94.41
2023-04-17T07:43:22.808Z,94.90
2023-04-17T07:45:55.005Z,94.86
2023-04-17T07:48:27.304Z,94.87
2023-04-17T07:51:02.139Z,94.32
2023-04-17T07:53:36.004Z,94.43
2023-04-17T07:56:08.335Z,94.51
2023-04-17T07:58:40.148Z,94.53
2023-04-17T08:01:12.309Z,94.64
2023-04-17T08:03:45.423Z,94.20
2023-04-17T08:06:17.507Z,94.09
2023-04-17T08:08:49.730Z,94.55
2023-04-17T08:11:22.306Z,94.03
2023-04-17T08:13:54.960Z,94.01
2023-04-17T08:16:26.725Z,93.36
2023-04-17T08:18:58.591Z,93.25
2023-04-17T08:21:31.064Z,93.28
2023-04-17T08:24:05.928Z,93.59
2023-04-17T08:26:38.004Z,93.38
2023-04-17T08:29:09.969Z,93.01
2023-04-17T08:31:41.971Z,92.50
2023-04-17T08:34:15.518Z,92.05
2023-04-17T08:36:47.980Z,92.21
2023-04-17T08:39:19.889Z,91.47
2023-04-17T08:42:00.280Z,91.19
2023-04-17T08:44:33.185Z,91.28
2023-04-17T08:47:04.548Z,91.39
2023-04-17T08:49:37.194Z,91.41
2023-04-17T08:52:09.793Z,91.49
2023-04-17T08:54:40.320Z,90.85
2023-04-17T08:57:12.770Z,90.38
2023-04-17T08:59:47.048Z,90.01
2023-04-17T09:02:19.051Z,90.44
2023-04-17T09:04:53.832Z,90.73
2023-04-17T09:07:31.724Z,90.29
2023-04-17T09:10:03.514Z,90.24
2023-04-17T09:12:41.702Z,89.93
2023-04-17T09:15:19.886Z,90.31
2023-04-17T09:17:51.645Z,89.96
2023-04-17T09:20:23.479Z,89.56
2023-04-17T09:23:02.948Z,89.59
2023-04-17T09:25:34.852Z,89.19
2023-04-17T09:28:14.699Z,88.61
2023-04-17T09:30:46.585Z,88.30
2023-04-17T09:33:20.725Z,88.14
2023-04-17T09:35:52.645Z,87.22
2023-04-17T09:38:39.970Z,86.32
2023-04-17T09:41:25.468Z,86.29
2023-04-17T09:44:01.791Z,86.26
2023-04-17T09:46:46.111Z,86.13
2023-04-17T09:49:21.037Z,85.11
2023-04-17T09:51:53.675Z,85.51
2023-04-17T09:54:26.368Z,84.96
2023-04-17T09:56:58.648Z,84.96
2023-04-17T09:59:31.445Z,84.18
2023-04-17T10:02:04.957Z,84.39
2023-04-17T10:04:37.765Z,84.38
2023-04-17T10:07:10.210Z,83.92
2023-04-17T10:09:45.633Z,82.43
2023-04-17T10:12:19.478Z,82.49
2023-04-17T10:14:53.006Z,82.04
2023-04-17T10:17:31.611Z,81.93
2023-04-17T10:20:30.881Z,82.14
2023-04-17T10:23:22.849Z,82.41
2023-04-17T10:26:43.235Z,82.73
2023-04-17T10:29:15.504Z,83.30
2023-04-17T10:32:29.073Z,83.71
2023-04-17T10:35:03.350Z,84.00
2023-04-17T10:38:05.517Z,83.71
2023-04-17T10:40:39.161Z,84.07
2023-04-17T10:43:14.806Z,83.45
2023-04-17T10:46:03.066Z,83.90
2023-04-17T10:48:38.069Z,83.53
2023-04-17T10:51:43.910Z,83.79
2023-04-17T10:54:16.311Z,83.31
2023-04-17T10:56:48.848Z,82.62
2023-04-17T10:59:20.822Z,83.12
2023-04-17T11:02:04.662Z,82.82
2023-04-17T11:04:37.144Z,81.94
2023-04-17T11:07:08.991Z,82.16
2023-04-17T11:09:42.558Z,81.46
2023-04-17T11:12:14.655Z,81.34
2023-04-17T11:14:46.630Z,81.18
2023-04-17T11:17:18.492Z,80.10
2023-04-17T11:19:50.699Z,79.56
2023-04-17T11:22:23.657Z,79.20
2023-04-17T11:24:55.442Z,78.45
2023-04-17T11:27:28.560Z,77.83
2023-04-17T11:30:01.143Z,77.16
2023-04-17T11:32:38.202Z,77.74
2023-04-17T11:35:11.706Z,77.68
2023-04-17T11:38:06.880Z,77.50
2023-04-17T11:40:43.243Z,76.87
2023-04-17T11:43:15.719Z,77.95
2023-04-17T11:45:50.937Z,77.74
2023-04-17T11:48:27.615Z,76.69
2023-04-17T11:51:02.153Z,76.54
2023-04-17T11:53:37.376Z,76.70
2023-04-17T11:56:17.127Z,75.71
2023-04-17T11:58:51.539Z,74.47
2023-04-17T12:01:25.342Z,75.10
2023-04-17T12:03:58.695Z,75.70
2023-04-17T12:06:39.852Z,75.40
2023-04-17T12:09:24.037Z,75.97
2023-04-17T12:11:55.862Z,75.46
2023-04-17T12:14:27.686Z,74.90
2023-04-17T12:17:01.164Z,74.84
2023-04-17T12:19:33.684Z,74.90
2023-04-17T12:22:06.171Z,73.91
2023-04-17T12:24:38.164Z,74.31
2023-04-17T12:27:10.381Z,73.67
2023-04-17T12:29:44.518Z,73.98
2023-04-17T12:32:17.769Z,74.06
2023-04-17T12:34:49.765Z,74.73
2023-04-17T12:37:22.526Z,75.11
2023-04-17T12:39:52.746Z,75.30
2023-04-17T12:42:24.852Z,75.37
2023-04-17T12:44:57.042Z,75.04
2023-04-17T12:47:29.576Z,74.38
2023-04-17T12:50:00.371Z,74.75
2023-04-17T12:52:33.038Z,74.78
2023-04-17T12:55:05.126Z,74.65
2023-04-17T12:57:38.409Z,74.13
2023-04-17T13:00:12.713Z,73.71
2023-04-17T13:02:44.705Z,73.44
2023-04-17T13:05:16.998Z,73.49
2023-04-17T13:07:49.045Z,73.84
2023-04-17T13:10:21.689Z,73.96
2023-04-17T13:12:53.783Z,73.40
2023-04-17T13:15:24.730Z,72.14
2023-04-17T13:17:57.091Z,71.47
2023-04-17T13:20:29.393Z,71.70
2023-04-17T13:23:01.571Z,71.58
2023-04-17T13:25:34.789Z,70.17
2023-04-17T13:28:06.803Z,69.29
2023-04-17T13:30:39.787Z,70.06
2023-04-17T13:33:11.863Z,69.45
2023-04-17T13:35:43.736Z,70.32
2023-04-17T13:38:16.267Z,70.38
2023-04-17T13:40:48.250Z,70.87
2023-04-17T13:43:20.086Z,71.73
2023-04-17T13:45:55.401Z,71.73
2023-04-17T13:48:27.785Z,72.44
2023-04-17T13:50:59.676Z,72.25
2023-04-17T13:53:31.684Z,71.20
2023-04-17T13:56:03.791Z,70.48
2023-04-17T13:58:36.039Z,70.36
2023-04-17T14:01:08.925Z,70.01
2023-04-17T14:03:44.593Z,70.62
2023-04-17T14:06:18.966Z,70.61
2023-04-17T14:08:51.054Z,69.58
2023-04-17T14:11:23.016Z,69.28
2023-04-17T14:13:54.904Z,69.74
2023-04-17T14:16:27.613Z,70.00
2023-04-17T14:19:12.284Z,70.39
2023-04-17T14:21:45.981Z,70.34
2023-04-17T14:24:18.281Z,70.52
2023-04-17T14:26:50.427Z,70.64
2023-04-17T14:29:22.503Z,70.28
2023-04-17T14:31:55.915Z,69.87
2023-04-17T14:34:28.747Z,69.76
2023-04-17T14:37:02.625Z,69.51
2023-04-17T14:39:34.843Z,69.78
2023-04-17T14:42:07.054Z,69.65
2023-04-17T14:44:39.792Z,68.96
2023-04-17T14:47:13.087Z,68.36
2023-04-17T14:49:48.778Z,67.65
2023-04-17T14:52:24.113Z,68.93
2023-04-17T14:54:57.558Z,69.78
2023-04-17T14:57:30.589Z,70.23
2023-04-17T15:00:03.781Z,70.09
2023-04-17T15:02:38.765Z,69.38
2023-04-17T15:05:12.648Z,69.38
2023-04-17T15:07:47.303Z,69.50
2023-04-17T15:10:19.335Z,70.07
2023-04-17T15:12:51.237Z,70.15
2023-04-17T15:15:23.229Z,70.56
2023-04-17T15:17:55.714Z,70.29
2023-04-17T15:20:28.968Z,70.55
2023-04-17T15:23:01.251Z,70.87
2023-04-17T15:25:34.357Z,70.92
2023-04-17T15:28:06.297Z,71.03
2023-04-17T15:30:38.269Z,71.32
2023-04-17T15:33:10.620Z,71.57
2023-04-17T15:35:42.537Z,71.22
2023-04-17T15:38:14.351Z,71.19
2023-04-17T15:40:47.477Z,70.54
2023-04-17T15:43:21.998Z,69.55
2023-04-17T15:45:55.525Z,69.79
2023-04-17T15:48:27.579Z,70.33
2023-04-17T15:51:00.845Z,70.18
2023-04-17T15:53:34.449Z,70.48
2023-04-17T15:56:07.536Z,70.21
2023-04-17T15:58:39.390Z,70.30
2023-04-17T16:01:11.791Z,70.55
2023-04-17T16:03:44.036Z,71.25
2023-04-17T16:06:16.781Z,71.57
2023-04-17T16:08:49.003Z,71.70
2023-04-17T16:11:21.302Z,70.79
2023-04-17T16:13:53.436Z,70.07
2023-04-17T16:16:25.703Z,69.17
2023-04-17T16:18:57.832Z,69.96
2023-04-17T16:21:31.251Z,70.58
2023-04-17T16:24:04.933Z,71.53
2023-04-17T16:26:37.947Z,71.89
2023-04-17T16:29:10.372Z,72.01
2023-04-17T16:31:42.944Z,71.94
2023-04-17T16:34:15.384Z,71.37
2023-04-17T16:36:47.447Z,71.22
2023-04-17T16:39:19.734Z,72.11
2023-04-17T16:41:52.985Z,72.49
2023-04-17T16:44:26.032Z,72.96
2023-04-17T16:47:12.613Z,73.62
2023-04-17T16:49:45.769Z,74.63
2023-04-17T16:52:18.274Z,74.65
2023-04-17T16:54:50.805Z,74.38
2023-04-17T16:57:22.833Z,74.84
2023-04-17T16:59:54.977Z,75.22
2023-04-17T17:02:27.239Z,75.32
2023-04-17T17:04:59.454Z,75.49
2023-04-17T17:07:31.667Z,76.14
2023-04-17T17:10:03.929Z,76.65
2023-04-17T17:12:36.333Z,76.79
2023-04-17T17:15:10.795Z,77.30
2023-04-17T17:17:44.400Z,77.28
2023-04-17T17:20:17.506Z,77.75
2023-04-17T17:22:49.965Z,77.80
2023-04-17T17:25:22.936Z,78.02
2023-04-17T17:27:56.337Z,78.41
2023-04-17T17:30:28.995Z,78.51
2023-04-17T17:33:08.691Z,78.61
2023-04-17T17:35:43.207Z,78.80
2023-04-17T17:38:18.978Z,78.98
2023-04-17T17:40:53.375Z,78.81
2023-04-17T17:43:25.584Z,78.99
2023-04-17T17:45:58.324Z,79.04
2023-04-17T17:48:30.846Z,79.60
2023-04-17T17:51:02.972Z,79.48
2023-04-17T17:53:35.332Z,79.14
2023-04-17T17:56:08.201Z,78.99
2023-04-17T17:58:40.278Z,79.30
2023-04-17T18:01:12.359Z,79.64
2023-04-17T18:03:45.485Z,79.71
2023-04-17T18:06:19.760Z,80.14
2023-04-17T18:08:52.845Z,80.06
2023-04-17T18:11:24.803Z,80.24
2023-04-17T18:13:57.078Z,80.26
2023-04-17T18:16:31.635Z,80.40
2023-04-17T18:19:04.961Z,80.20
2023-04-17T18:21:37.466Z,80.76
2023-04-17T18:24:10.871Z,81.43
2023-04-17T18:26:43.681Z,81.47
2023-04-17T18:29:15.878Z,81.41
2023-04-17T18:31:48.002Z,81.33
2023-04-17T18:34:23.108Z,81.58
2023-04-17T18:36:56.268Z,82.18
2023-04-17T18:39:28.484Z,82.36
2023-04-17T18:42:01.752Z,82.31
2023-04-17T18:44:35.239Z,82.23
2023-04-17T18:47:07.685Z,81.99
2023-04-17T18:49:40.255Z,82.04
2023-04-17T18:52:12.140Z,82.41
2023-04-17T18:54:44.313Z,82.36
2023-04-17T18:57:16.785Z,82.66
2023-04-17T18:59:47.733Z,82.72
2023-04-17T19:02:19.929Z,82.52
2023-04-17T19:04:51.719Z,83.15
2023-04-17T19:07:23.912Z,83.38
2023-04-17T19:09:56.892Z,84.02
2023-04-17T19:12:30.507Z,84.10
2023-04-17T19:15:02.436Z,84.42
2023-04-17T19:17:34.538Z,83.85
2023-04-17T19:20:08.210Z,83.68
2023-04-17T19:22:40.593Z,83.44
2023-04-17T19:25:13.378Z,83.61
2023-04-17T19:27:43.611Z,83.69
2023-04-17T19:30:16.880Z,84.18
2023-04-17T19:32:49.154Z,84.34
2023-04-17T19:35:21.512Z,83.96
2023-04-17T19:37:53.790Z,83.84
2023-04-17T19:40:26.238Z,83.48
2023-04-17T19:43:01.246Z,83.43
2023-04-17T19:45:35.820Z,83.48
2023-04-17T19:48:09.077Z,83.81
2023-04-17T19:50:41.285Z,83.87
2023-04-17T19:53:13.165Z,83.91
2023-04-17T19:55:45.348Z,84.55
2023-04-17T19:58:17.889Z,84.60
2023-04-17T20:00:50.247Z,84.81
2023-04-17T20:03:22.365Z,84.60
2023-04-17T20:05:54.994Z,84.69
2023-04-17T20:08:27.406Z,84.91
2023-04-17T20:10:59.268Z,85.46
2023-04-17T20:13:31.311Z,85.48
2023-04-17T20:16:03.094Z,85.38
2023-04-17T20:18:35.168Z,85.77
2023-04-17T20:21:07.484Z,86.22
2023-04-17T20:23:39.698Z,85.90
2023-04-17T20:26:11.782Z,86.28
2023-04-17T20:28:43.748Z,86.20
2023-04-17T20:31:16.004Z,85.96
2023-04-17T20:33:48.008Z,86.14
2023-04-17T20:36:20.225Z,86.09
2023-04-17T20:38:52.727Z,85.79
2023-04-17T20:41:24.747Z,85.96
2023-04-17T20:44:00.936Z,86.41
2023-04-17T20:46:33.021Z,87.12
2023-04-17T20:49:05.061Z,86.89
2023-04-17T20:51:36.909Z,86.91
2023-04-17T20:54:08.764Z,86.52
2023-04-17T20:56:40.926Z,86.52
2023-04-17T20:59:12.762Z,86.71
2023-04-17T21:01:44.895Z,86.87
2023-04-17T21:04:16.933Z,86.56
2023-04-17T21:06:49.944Z,86.56
2023-04-17T21:09:23.356Z,86.40
2023-04-17T21:11:55.360Z,86.16
2023-04-17T21:14:27.984Z,86.32
2023-04-17T21:16:58.588Z,85.88
2023-04-17T21:19:34.849Z,86.02
2023-04-17T21:22:06.669Z,85.61
2023-04-17T21:24:40.957Z,85.19
2023-04-17T21:27:12.843Z,85.16
2023-04-17T21:29:44.634Z,85.09
2023-04-17T21:32:16.421Z,85.16
2023-04-17T21:34:48.161Z,85.46
2023-04-17T21:37:19.930Z,85.50
2023-04-17T21:39:52.096Z,85.54
2023-04-17T21:42:24.061Z,85.78
2023-04-17T21:44:56.249Z,86.37
2023-04-17T21:47:28.006Z,86.18
2023-04-17T21:50:00.510Z,86.36
2023-04-17T21:52:32.328Z,86.74
2023-04-17T21:55:05.624Z,86.88
2023-04-17T21:57:37.486Z,86.56
2023-04-17T22:00:12.620Z,86.50
2023-04-17T22:02:44.812Z,86.58
2023-04-17T22:05:16.954Z,86.77
2023-04-17T22:07:54.996Z,86.87
2023-04-17T22:10:27.499Z,86.79
2023-04-17T22:12:59.751Z,87.00
2023-04-17T22:15:31.864Z,87.03
2023-04-17T22:18:03.693Z,86.72
2023-04-17T22:20:35.463Z,86.26
2023-04-17T22:23:07.862Z,86.14
2023-04-17T22:25:39.546Z,85.91
2023-04-17T22:28:11.383Z,85.46
2023-04-17T22:30:43.394Z,85.36
2023-04-17T22:33:15.541Z,85.15
2023-04-17T22:35:47.387Z,84.76
2023-04-17T22:38:21.101Z,84.84
2023-04-17T22:40:52.964Z,85.08
2023-04-17T22:43:24.749Z,84.84
2023-04-17T22:45:57.343Z,84.86
2023-04-17T22:48:28.360Z,84.55
2023-04-17T22:51:01.096Z,84.29
2023-04-17T22:53:31.450Z,83.76
2023-04-17T22:56:04.912Z,83.95
2023-04-17T22:58:36.807Z,84.10
2023-04-17T23:01:08.805Z,84.09
2023-04-17T23:03:41.184Z,84.40
2023-04-17T23:06:12.941Z,84.51
2023-04-17T23:08:44.828Z,84.50
2023-04-17T23:11:16.719Z,84.47
2023-04-17T23:13:48.555Z,84.24
2023-04-17T23:16:20.858Z,84.90
2023-04-17T23:18:52.683Z,85.08
2023-04-17T23:21:25.310Z,84.77
2023-04-17T23:23:57.769Z,84.75
2023-04-17T23:26:29.915Z,85.45
2023-04-17T23:29:01.692Z,85.26
2023-04-17T23:31:33.599Z,85.00
2023-04-17T23:34:05.473Z,84.70
2023-04-17T23:36:37.410Z,85.05
2023-04-17T23:39:09.389Z,85.29
2023-04-17T23:41:42.810Z,85.58
2023-04-17T23:44:14.902Z,85.55
2023-04-17T23:46:47.019Z,85.51
2023-04-17T23:49:18.849Z,85.54
2023-04-17T23:51:50.571Z,85.57
2023-04-17T23:54:23.534Z,85.45
2023-04-17T23:56:55.694Z,85.57
2023-04-17T23:59:27.703Z,85.34
